Terminal Aerodrome Forecast
Issued by NWS

Home | Current Version | Previous Version | Text Only | Print | Product List | Glossary On
Versions: 1 2 3 4 5 6 7 8 9 10 11 12 13 14 15 16 17 18 19 20 21 22 23 24 25 26 27 28 29 30 31 32 33 34 35 36 37 38 39 40 41 42 43
000
FTUS44 KFWD 242352
TAFDAL
TAF
KDAL 242352Z 2500/2524 09010KT 4SM -TSRA BR OVC008CB
      TEMPO 2500/2501 VRB25G40KT 1SM TSRA OVC003CB
     FM250200 16018KT P6SM OVC010
     FM250900 23013KT P6SM SCT015
     FM251200 26015KT P6SM SCT250=

USA.gov is the U.S. government's official web portal to all federal, state and local government web resources and services.